»·PEaware :: N1217J KVNY-KSBP

N1217J :: KVNY-KSBP

FLIGHT INFORMATION

Flight Status: Arrived
Operator: Privately registered:
United States
More flights under this callsign
Pilot: John T. (14556)
Aircraft: PILATUS PC-12 EAGLE
(PC12)
More flights by this aircraft type
Origin: KVNY Van Nuys
United States
Destination: KSBP San Luis Co Regl
United States
More flights between these airports :: More routes between these airports
Route: +CANOG2 FIM V186 RZS MQO
File this flight plan on PilotEdge
Remarks: / G
Altitude:
(Current/Filed)
16,000ft
Speed:
(Current/Filed)
200kts
Departed: 11-Sep-18 01:27 PM
Arrived: 11-Sep-18 02:14 PM
Distance/Time
Traveled:
123nm/0:47
Distance/Time
To Go:
Arrived

Flight Plot

Page will automatically refresh every two minutes.

Flight plan parsing failed; only flown route is shown


Map Options




Map Legend


Flown Route
Filed Route
Departure Airport
Arrival Airport
Navaid (VOR, NDB)
Fix

Horizontal Profiles

Position Reports

Time Latitude Longitude Heading Altitude Ground
Speed
11-Sep-18 13:13 34.209919 -118.491888 87 806ft 0kts
11-Sep-18 13:14 34.209919 -118.491888 87 806ft 0kts
11-Sep-18 13:15 34.209919 -118.491888 87 806ft 0kts
11-Sep-18 13:16 34.209919 -118.491888 87 806ft 0kts
11-Sep-18 13:17 34.209919 -118.491888 87 806ft 0kts
11-Sep-18 13:18 34.209919 -118.491888 87 806ft 0kts
11-Sep-18 13:19 34.209919 -118.491888 87 806ft 0kts
11-Sep-18 13:20 34.209919 -118.491888 87 806ft 0kts
11-Sep-18 13:21 34.209919 -118.491888 87 806ft 0kts
11-Sep-18 13:22 34.209919 -118.491888 87 806ft 0kts
11-Sep-18 13:23 34.209919 -118.491888 87 806ft 0kts
11-Sep-18 13:24 34.209981 -118.491673 51 806ft 7kts
11-Sep-18 13:25 34.212280 -118.491764 356 806ft 16kts
11-Sep-18 13:26 34.216945 -118.492255 1 806ft 16kts
11-Sep-18 13:27 34.218656 -118.492180 52 806ft 0kts
11-Sep-18 13:28 34.218656 -118.492180 52 806ft 0kts
11-Sep-18 13:29 34.207925 -118.490126 172 988ft 110kts
11-Sep-18 13:30 34.172490 -118.487656 217 2484ft 164kts
11-Sep-18 13:31 34.137783 -118.530347 225 3948ft 191kts
11-Sep-18 13:32 34.120443 -118.594169 271 4386ft 220kts
11-Sep-18 13:33 34.123950 -118.661115 271 5818ft 195kts
11-Sep-18 13:34 34.127101 -118.723810 271 7299ft 184kts
11-Sep-18 13:35 34.129838 -118.785865 271 8015ft 195kts
11-Sep-18 13:36 34.140591 -118.849131 291 8748ft 178kts
11-Sep-18 13:37 34.159180 -118.904214 289 10244ft 179kts
11-Sep-18 13:38 34.176553 -118.960169 290 11741ft 178kts
11-Sep-18 13:39 34.194369 -119.018032 291 12901ft 190kts
11-Sep-18 13:40 34.212898 -119.078383 291 14003ft 194kts
11-Sep-18 13:41 34.231390 -119.139718 290 15099ft 196kts
11-Sep-18 13:42 34.250183 -119.201863 290 15998ft 205kts
11-Sep-18 13:43 34.270960 -119.269451 290 16009ft 221kts
11-Sep-18 13:44 34.292742 -119.340987 290 16009ft 231kts
11-Sep-18 13:45 34.315189 -119.414130 295 16007ft 233kts
11-Sep-18 13:46 34.350191 -119.479932 302 16011ft 232kts
11-Sep-18 13:47 34.379630 -119.533881 302 16014ft 231kts
11-Sep-18 13:48 34.420619 -119.609159 302 16015ft 231kts
11-Sep-18 13:49 34.449365 -119.662072 302 15945ft 234kts
11-Sep-18 13:50 34.482726 -119.722427 302 15188ft 197kts
11-Sep-18 13:51 34.516834 -119.781725 310 14528ft 194kts
11-Sep-18 13:52 34.549235 -119.824993 311 14217ft 219kts
11-Sep-18 13:53 34.591816 -119.880724 311 13825ft 228kts
11-Sep-18 13:54 34.641904 -119.946524 311 13356ft 226kts
11-Sep-18 13:55 34.677067 -119.992929 311 13022ft 225kts
11-Sep-18 13:56 34.719336 -120.048842 311 12616ft 225kts
11-Sep-18 13:57 34.761545 -120.104696 311 12208ft 224kts
11-Sep-18 13:58 34.803454 -120.160293 311 11799ft 223kts
11-Sep-18 13:59 34.845512 -120.216133 311 11386ft 223kts
11-Sep-18 14:00 34.887520 -120.271495 311 10973ft 223kts
11-Sep-18 14:01 34.929335 -120.327097 311 10559ft 224kts
11-Sep-18 14:02 34.971031 -120.382477 311 9797ft 214kts
11-Sep-18 14:03 35.009881 -120.434400 311 8878ft 204kts
11-Sep-18 14:04 35.047779 -120.485159 311 7963ft 202kts
11-Sep-18 14:05 35.092673 -120.495379 53 6573ft 206kts
11-Sep-18 14:06 35.108118 -120.433064 118 4995ft 198kts
11-Sep-18 14:07 35.070931 -120.391336 142 4053ft 171kts
11-Sep-18 14:08 35.032264 -120.386850 229 3458ft 176kts
11-Sep-18 14:09 35.047196 -120.433263 357 3317ft 181kts
11-Sep-18 14:10 35.093826 -120.429089 359 3295ft 158kts
11-Sep-18 14:11 35.128216 -120.455998 307 3187ft 156kts
11-Sep-18 14:12 35.156140 -120.502084 307 2894ft 175kts
11-Sep-18 14:13 35.183365 -120.546108 304 2288ft 132kts
11-Sep-18 14:14 35.203386 -120.581550 304 1478ft 125kts
11-Sep-18 14:15 35.223159 -120.616157 304 682ft 124kts
11-Sep-18 14:16 35.236699 -120.639915 326 179ft 18kts
11-Sep-18 14:17 35.238628 -120.639496 54 179ft 2kts

Navigation Log

Ident Type
Flight plan parsing failed, navigation log unavailable